createdAt,value
2023-05-01T00:00:27.587Z,1000.00
2023-05-01T00:01:27.702Z,1000.00
2023-05-01T00:02:28.027Z,1000.00
2023-05-01T00:03:27.816Z,1000.00
2023-05-01T00:04:27.666Z,1000.00
2023-05-01T00:05:27.550Z,1000.00
2023-05-01T00:06:27.975Z,1000.00
2023-05-01T00:07:28.304Z,1000.00
2023-05-01T00:08:27.505Z,1000.00
2023-05-01T00:09:27.862Z,1000.00
2023-05-01T00:10:27.579Z,856.53
2023-05-01T00:11:27.576Z,846.93
2023-05-01T00:12:27.487Z,908.32
2023-05-01T00:13:27.534Z,895.59
2023-05-01T00:14:27.537Z,940.43
2023-05-01T00:15:27.494Z,1000.00
2023-05-01T00:16:27.577Z,1000.00
2023-05-01T00:17:27.832Z,1000.00
2023-05-01T00:18:27.516Z,1000.00
2023-05-01T00:19:27.484Z,1000.00
2023-05-01T00:20:27.441Z,1000.00
2023-05-01T00:21:27.433Z,1000.00
2023-05-01T00:22:27.813Z,1000.00
2023-05-01T00:23:27.426Z,1000.00
2023-05-01T00:24:27.435Z,1000.00
2023-05-01T00:25:27.417Z,1000.00
2023-05-01T00:26:27.443Z,1000.00
2023-05-01T00:27:27.441Z,1000.00
2023-05-01T00:28:27.411Z,1000.00
2023-05-01T00:29:27.401Z,1000.00
2023-05-01T00:30:27.381Z,1000.00
2023-05-01T00:31:27.491Z,1000.00
2023-05-01T00:32:27.379Z,1000.00
2023-05-01T00:33:27.361Z,1000.00
2023-05-01T00:34:27.349Z,1000.00
2023-05-01T00:35:27.333Z,1000.00
2023-05-01T00:36:27.401Z,1000.00
2023-05-01T00:37:27.370Z,1000.00
2023-05-01T00:38:27.326Z,1000.00
2023-05-01T00:39:27.626Z,1000.00
2023-05-01T00:40:27.340Z,1000.00
2023-05-01T00:41:27.308Z,1000.00
2023-05-01T00:42:27.295Z,1000.00
2023-05-01T00:43:27.294Z,1000.00
2023-05-01T00:44:27.662Z,1000.00
2023-05-01T00:45:27.250Z,1000.00
2023-05-01T00:46:27.338Z,1000.00
2023-05-01T00:47:27.313Z,1000.00
2023-05-01T00:48:27.211Z,1000.00
2023-05-01T00:49:27.258Z,1000.00
2023-05-01T00:50:27.279Z,1000.00
2023-05-01T00:51:27.257Z,1000.00
2023-05-01T00:52:27.218Z,1000.00
2023-05-01T00:53:27.254Z,1000.00
2023-05-01T00:54:27.857Z,1000.00
2023-05-01T00:55:27.270Z,1000.00
2023-05-01T00:56:27.417Z,1000.00
2023-05-01T00:57:27.315Z,1000.00
2023-05-01T00:58:27.288Z,1000.00
2023-05-01T00:59:27.409Z,1000.00
2023-05-01T01:00:27.321Z,1000.00
2023-05-01T01:01:27.390Z,1000.00
2023-05-01T01:02:27.460Z,1000.00
2023-05-01T01:03:27.379Z,1000.00
2023-05-01T01:04:27.427Z,1000.00
2023-05-01T01:05:27.381Z,1000.00
2023-05-01T01:06:27.426Z,1000.00
2023-05-01T01:07:27.416Z,1000.00
2023-05-01T01:08:27.414Z,1000.00
2023-05-01T01:09:27.427Z,1000.00
2023-05-01T01:10:27.433Z,1000.00
2023-05-01T01:11:27.447Z,1000.00
2023-05-01T01:12:27.434Z,1000.00
2023-05-01T01:13:27.448Z,1000.00
2023-05-01T01:14:27.484Z,1000.00
2023-05-01T01:15:27.530Z,1000.00
2023-05-01T01:16:27.597Z,1000.00
2023-05-01T01:17:27.619Z,1000.00
2023-05-01T01:18:27.612Z,1000.00
2023-05-01T01:19:27.620Z,1000.00
2023-05-01T01:20:27.670Z,1000.00
2023-05-01T01:21:27.781Z,1000.00
2023-05-01T01:22:27.791Z,1000.00
2023-05-01T01:23:27.796Z,1000.00
2023-05-01T01:24:27.892Z,1000.00
2023-05-01T01:25:27.845Z,1000.00
2023-05-01T01:26:27.889Z,1000.00
2023-05-01T01:27:27.912Z,1000.00
2023-05-01T01:28:27.963Z,1000.00
2023-05-01T01:29:27.915Z,1000.00
2023-05-01T01:30:28.260Z,1000.00
2023-05-01T01:31:28.040Z,1000.00
2023-05-01T01:32:28.009Z,1000.00
2023-05-01T01:33:28.009Z,1000.00
2023-05-01T01:34:28.067Z,1000.00
2023-05-01T01:35:28.132Z,1000.00
2023-05-01T01:36:28.080Z,1000.00
2023-05-01T01:37:28.090Z,1000.00
2023-05-01T01:38:28.091Z,1000.00
2023-05-01T01:39:28.078Z,1000.00
2023-05-01T01:40:28.070Z,1000.00
2023-05-01T01:41:28.116Z,1000.00
2023-05-01T01:42:28.161Z,1000.00
2023-05-01T01:43:28.196Z,1000.00
2023-05-01T01:44:28.200Z,1000.00
2023-05-01T01:45:28.215Z,909.91
2023-05-01T01:46:28.237Z,811.46
2023-05-01T01:47:28.282Z,963.10
2023-05-01T01:48:28.273Z,778.70
2023-05-01T01:49:28.323Z,662.75
2023-05-01T01:50:28.313Z,635.38
2023-05-01T01:51:28.363Z,677.25
2023-05-01T01:52:28.358Z,725.25
2023-05-01T01:53:28.419Z,692.86
2023-05-01T01:54:28.424Z,718.10
2023-05-01T01:55:28.477Z,746.66
2023-05-01T01:56:28.551Z,714.09
2023-05-01T01:57:28.559Z,652.89
2023-05-01T01:58:28.596Z,669.43
2023-05-01T01:59:28.612Z,741.44
2023-05-01T02:00:28.673Z,660.14
2023-05-01T02:01:28.784Z,656.40
2023-05-01T02:02:28.803Z,762.04
2023-05-01T02:03:28.881Z,861.28
2023-05-01T02:04:28.845Z,864.70
2023-05-01T02:05:28.874Z,797.82
2023-05-01T02:06:28.905Z,661.69
2023-05-01T02:07:28.881Z,709.43
2023-05-01T02:08:28.893Z,919.92
2023-05-01T02:09:28.915Z,1000.00
2023-05-01T02:10:28.925Z,1000.00
2023-05-01T02:11:28.988Z,843.32
2023-05-01T02:12:29.018Z,816.21
2023-05-01T02:13:29.940Z,591.09
2023-05-01T02:14:29.060Z,650.66
2023-05-01T02:15:29.069Z,753.95
2023-05-01T02:16:29.150Z,997.59
2023-05-01T02:17:29.160Z,1000.00
2023-05-01T02:18:29.138Z,1000.00
2023-05-01T02:19:29.191Z,1000.00
2023-05-01T02:20:29.238Z,1000.00
2023-05-01T02:21:29.327Z,1000.00
2023-05-01T02:22:29.316Z,1000.00
2023-05-01T02:23:29.317Z,1000.00
2023-05-01T02:24:29.427Z,1000.00
2023-05-01T02:25:29.688Z,1000.00
2023-05-01T02:26:30.387Z,1000.00
2023-05-01T02:27:29.488Z,1000.00
2023-05-01T02:28:29.577Z,1000.00
2023-05-01T02:29:29.559Z,1000.00
2023-05-01T02:30:29.580Z,1000.00
2023-05-01T02:31:29.699Z,1000.00
2023-05-01T02:32:29.675Z,1000.00
2023-05-01T02:33:29.695Z,1000.00
2023-05-01T02:34:29.707Z,1000.00
2023-05-01T02:35:29.783Z,1000.00
2023-05-01T02:36:30.243Z,1000.00
2023-05-01T02:37:29.836Z,1000.00
2023-05-01T02:38:29.893Z,1000.00
2023-05-01T02:39:29.916Z,1000.00
2023-05-01T02:40:29.917Z,1000.00
2023-05-01T02:41:29.986Z,1000.00
2023-05-01T02:42:29.998Z,990.19
2023-05-01T02:43:30.047Z,827.13
2023-05-01T02:44:30.107Z,921.33
2023-05-01T02:45:30.244Z,1000.00
2023-05-01T02:46:30.295Z,1000.00
2023-05-01T02:47:30.216Z,891.00
2023-05-01T02:48:30.196Z,878.14
2023-05-01T02:49:30.223Z,1000.00
2023-05-01T02:50:30.381Z,1000.00
2023-05-01T02:51:30.654Z,1000.00
2023-05-01T02:52:30.393Z,1000.00
2023-05-01T02:53:30.427Z,1000.00
2023-05-01T02:54:30.463Z,1000.00
2023-05-01T02:55:30.435Z,1000.00
2023-05-01T02:56:30.494Z,1000.00
2023-05-01T02:57:30.482Z,1000.00
2023-05-01T02:58:31.380Z,1000.00
2023-05-01T02:59:30.522Z,1000.00
2023-05-01T03:00:30.587Z,1000.00
2023-05-01T03:01:30.669Z,1000.00
2023-05-01T03:02:30.605Z,1000.00
2023-05-01T03:03:30.651Z,1000.00
2023-05-01T03:04:30.744Z,1000.00
2023-05-01T03:05:30.716Z,1000.00
2023-05-01T03:06:30.846Z,1000.00
2023-05-01T03:07:30.797Z,1000.00
2023-05-01T03:08:30.827Z,1000.00
2023-05-01T03:09:30.864Z,1000.00
2023-05-01T03:10:30.893Z,1000.00
2023-05-01T03:11:30.985Z,1000.00
2023-05-01T03:12:31.037Z,1000.00
2023-05-01T03:13:31.036Z,1000.00
2023-05-01T03:14:31.118Z,1000.00
2023-05-01T03:15:31.183Z,1000.00
2023-05-01T03:16:31.253Z,1000.00
2023-05-01T03:17:31.248Z,1000.00
2023-05-01T03:18:31.254Z,1000.00
2023-05-01T03:19:31.276Z,1000.00
2023-05-01T03:20:31.313Z,1000.00
2023-05-01T03:21:31.366Z,1000.00
2023-05-01T03:22:31.355Z,1000.00
2023-05-01T03:23:31.412Z,1000.00
2023-05-01T03:24:31.431Z,1000.00
2023-05-01T03:25:31.432Z,1000.00
2023-05-01T03:26:31.516Z,1000.00
2023-05-01T03:27:31.519Z,1000.00
2023-05-01T03:28:31.587Z,1000.00
2023-05-01T03:29:31.575Z,1000.00
2023-05-01T03:30:31.621Z,1000.00
2023-05-01T03:31:31.642Z,1000.00
2023-05-01T03:32:31.657Z,1000.00
2023-05-01T03:33:31.681Z,1000.00
2023-05-01T03:34:31.707Z,1000.00
2023-05-01T03:35:31.834Z,1000.00
2023-05-01T03:36:31.804Z,1000.00
2023-05-01T03:37:31.814Z,1000.00
2023-05-01T03:38:31.817Z,1000.00
2023-05-01T03:39:31.884Z,1000.00
2023-05-01T03:40:31.871Z,1000.00
2023-05-01T03:41:31.948Z,1000.00
2023-05-01T03:42:31.950Z,1000.00
2023-05-01T03:43:32.118Z,1000.00
2023-05-01T03:44:32.074Z,1000.00
2023-05-01T03:45:32.123Z,1000.00
2023-05-01T03:46:32.359Z,1000.00
2023-05-01T03:47:32.256Z,1000.00
2023-05-01T03:48:32.292Z,1000.00
2023-05-01T03:49:32.304Z,1000.00
2023-05-01T03:50:32.318Z,1000.00
2023-05-01T03:51:32.678Z,1000.00
2023-05-01T03:52:32.382Z,1000.00
2023-05-01T03:53:32.538Z,1000.00
2023-05-01T03:54:32.529Z,1000.00
2023-05-01T03:55:32.572Z,1000.00
2023-05-01T03:56:32.621Z,1000.00
2023-05-01T03:57:32.723Z,1000.00
2023-05-01T03:58:32.771Z,1000.00
2023-05-01T03:59:32.787Z,1000.00
2023-05-01T04:00:32.917Z,1000.00
2023-05-01T04:01:32.959Z,1000.00
2023-05-01T04:02:33.067Z,1000.00
2023-05-01T04:03:33.136Z,1000.00
2023-05-01T04:04:33.277Z,1000.00
2023-05-01T04:05:33.152Z,1000.00
2023-05-01T04:06:33.283Z,1000.00
2023-05-01T04:07:33.254Z,1000.00
2023-05-01T04:08:33.323Z,1000.00
2023-05-01T04:09:33.323Z,1000.00
2023-05-01T04:10:33.424Z,1000.00
2023-05-01T04:11:33.437Z,1000.00
2023-05-01T04:12:33.489Z,1000.00
2023-05-01T04:13:33.496Z,1000.00
2023-05-01T04:14:33.865Z,1000.00
2023-05-01T04:15:33.921Z,1000.00
2023-05-01T04:16:33.754Z,1000.00
2023-05-01T04:17:33.719Z,1000.00
2023-05-01T04:18:33.729Z,1000.00
2023-05-01T04:19:33.839Z,1000.00
2023-05-01T04:20:34.156Z,1000.00
2023-05-01T04:21:33.860Z,1000.00
2023-05-01T04:22:33.920Z,1000.00
2023-05-01T04:23:34.278Z,1000.00
2023-05-01T04:24:33.965Z,1000.00
2023-05-01T04:25:34.053Z,1000.00
2023-05-01T04:26:34.087Z,1000.00
2023-05-01T04:27:34.108Z,1000.00
2023-05-01T04:28:34.518Z,1000.00
2023-05-01T04:29:34.263Z,1000.00
2023-05-01T04:30:34.280Z,1000.00
2023-05-01T04:31:34.365Z,1000.00
2023-05-01T04:32:34.719Z,1000.00
2023-05-01T04:33:34.398Z,1000.00
2023-05-01T04:34:34.410Z,1000.00
2023-05-01T04:35:34.416Z,1000.00
2023-05-01T04:36:34.829Z,1000.00
2023-05-01T04:37:34.478Z,1000.00
2023-05-01T04:38:34.552Z,1000.00
2023-05-01T04:39:34.540Z,1000.00
2023-05-01T04:40:34.590Z,1000.00
2023-05-01T04:41:34.592Z,1000.00
2023-05-01T04:42:34.622Z,1000.00
2023-05-01T04:43:34.750Z,1000.00
2023-05-01T04:44:34.692Z,1000.00
2023-05-01T04:45:34.697Z,1000.00
2023-05-01T04:46:34.779Z,1000.00
2023-05-01T04:47:34.812Z,1000.00
2023-05-01T04:48:34.816Z,1000.00
2023-05-01T04:49:34.827Z,1000.00
2023-05-01T04:50:34.844Z,1000.00
2023-05-01T04:51:34.856Z,1000.00
2023-05-01T04:52:34.874Z,1000.00
2023-05-01T04:53:34.911Z,1000.00
2023-05-01T04:54:34.920Z,1000.00
2023-05-01T04:55:34.941Z,1000.00
2023-05-01T04:56:34.972Z,1000.00
2023-05-01T04:57:35.024Z,1000.00
2023-05-01T04:58:35.010Z,1000.00
2023-05-01T04:59:34.964Z,1000.00
2023-05-01T05:00:35.021Z,1000.00
2023-05-01T05:02:54.710Z,0.50
2023-05-01T05:03:55.528Z,0.50
2023-05-01T05:04:54.658Z,0.50
2023-05-01T05:05:54.645Z,0.50
2023-05-01T05:06:54.674Z,0.50
2023-05-01T05:07:54.636Z,0.50
2023-05-01T05:08:54.635Z,0.53
2023-05-01T05:09:54.807Z,0.57
2023-05-01T05:10:54.594Z,0.59
2023-05-01T05:11:54.692Z,0.60
2023-05-01T05:12:54.606Z,0.60
2023-05-01T05:13:54.542Z,0.51
2023-05-01T05:14:54.619Z,0.54
2023-05-01T05:15:54.593Z,0.61
2023-05-01T05:16:54.615Z,0.71
2023-05-01T05:17:56.490Z,0.72
2023-05-01T05:18:54.556Z,0.64
2023-05-01T05:19:55.688Z,0.62
2023-05-01T05:20:54.543Z,0.72
2023-05-01T05:21:54.501Z,0.77
2023-05-01T05:22:54.511Z,0.77
2023-05-01T05:23:54.481Z,0.69
2023-05-01T05:24:54.480Z,0.64
2023-05-01T05:25:54.468Z,0.65
2023-05-01T05:26:54.691Z,0.58
2023-05-01T05:27:54.545Z,0.51
2023-05-01T05:28:54.560Z,0.50
2023-05-01T05:29:54.768Z,0.54
2023-05-01T05:30:54.558Z,0.52
2023-05-01T05:31:54.627Z,0.53
2023-05-01T05:32:54.568Z,0.52
2023-05-01T05:33:54.559Z,0.50
2023-05-01T05:34:54.597Z,0.50
2023-05-01T05:35:54.618Z,0.51
2023-05-01T05:36:54.692Z,0.59
2023-05-01T05:37:54.682Z,0.63
2023-05-01T05:38:54.662Z,0.58
2023-05-01T05:39:54.826Z,0.61
2023-05-01T05:40:54.710Z,0.67
2023-05-01T05:41:54.709Z,0.60
2023-05-01T05:42:54.644Z,0.57
2023-05-01T05:43:54.748Z,0.55
2023-05-01T05:44:54.810Z,0.56
2023-05-01T05:46:02.565Z,0.61
2023-05-01T05:46:54.910Z,0.61
2023-05-01T05:47:54.882Z,0.60
2023-05-01T05:48:54.829Z,0.61
2023-05-01T05:49:55.056Z,0.58
2023-05-01T05:50:54.843Z,0.63
2023-05-01T05:51:54.825Z,0.62
2023-05-01T05:52:54.811Z,0.63
2023-05-01T05:53:54.862Z,0.64
2023-05-01T05:54:54.784Z,0.66
2023-05-01T05:55:54.809Z,0.61
2023-05-01T05:56:54.889Z,0.56
2023-05-01T05:57:54.801Z,0.50
2023-05-01T05:58:54.774Z,0.51
2023-05-01T05:59:55.000Z,0.50
2023-05-01T06:00:54.788Z,0.54
2023-05-01T06:01:55.060Z,0.56
2023-05-01T06:02:54.902Z,0.60
2023-05-01T06:03:54.809Z,0.70
2023-05-01T06:04:54.789Z,0.62
2023-05-01T06:05:54.935Z,0.62
2023-05-01T06:06:54.930Z,0.68
2023-05-01T06:07:54.701Z,0.70
2023-05-01T06:08:54.720Z,0.68
2023-05-01T06:09:54.957Z,0.66
2023-05-01T06:10:54.729Z,0.87
2023-05-01T06:11:54.846Z,0.79
2023-05-01T06:12:59.665Z,0.63
2023-05-01T06:13:55.900Z,0.58
2023-05-01T06:14:54.885Z,0.55
2023-05-01T06:15:55.730Z,0.55
2023-05-01T06:16:54.795Z,0.57
2023-05-01T06:17:54.853Z,0.66
2023-05-01T06:18:54.879Z,0.64
2023-05-01T06:19:55.136Z,0.66
2023-05-01T06:20:54.777Z,0.68
2023-05-01T06:21:54.806Z,0.71
2023-05-01T06:22:54.805Z,0.68
2023-05-01T06:23:54.827Z,0.70
2023-05-01T06:24:54.832Z,0.73
2023-05-01T06:25:54.858Z,0.70
2023-05-01T06:26:54.853Z,0.59
2023-05-01T06:27:54.871Z,0.47
2023-05-01T06:28:54.858Z,0.50
2023-05-01T06:29:55.067Z,0.50
2023-05-01T06:30:54.956Z,0.50
2023-05-01T06:31:54.998Z,0.52
2023-05-01T06:32:54.973Z,0.59
2023-05-01T06:33:54.910Z,0.53
2023-05-01T06:34:55.005Z,0.50
2023-05-01T06:35:54.995Z,0.50
2023-05-01T06:36:54.999Z,0.50
2023-05-01T06:37:55.087Z,0.50
2023-05-01T06:38:55.101Z,0.50
2023-05-01T06:39:55.340Z,0.54
2023-05-01T06:40:55.267Z,0.51
2023-05-01T06:41:55.367Z,0.46
2023-05-01T06:42:55.342Z,0.52
2023-05-01T06:43:55.378Z,0.45
2023-05-01T06:44:55.361Z,0.43
2023-05-01T06:45:55.392Z,0.34
2023-05-01T06:46:55.514Z,0.36
2023-05-01T06:47:55.726Z,0.43
2023-05-01T06:48:55.577Z,0.48
2023-05-01T06:49:55.798Z,0.49
2023-05-01T06:50:55.601Z,0.51
2023-05-01T06:51:55.590Z,0.56
2023-05-01T06:52:55.591Z,0.64
2023-05-01T06:53:55.634Z,0.56
2023-05-01T06:54:55.650Z,0.49
2023-05-01T06:55:55.611Z,0.47
2023-05-01T06:56:55.651Z,0.50
2023-05-01T06:57:55.664Z,0.54
2023-05-01T06:58:55.673Z,0.74
2023-05-01T06:59:55.906Z,0.77
2023-05-01T07:00:55.618Z,0.57
2023-05-01T07:01:55.730Z,0.43
2023-05-01T07:02:55.748Z,0.40
2023-05-01T07:03:56.096Z,0.52
2023-05-01T07:04:55.869Z,0.50
2023-05-01T07:05:55.931Z,0.59
2023-05-01T07:06:55.968Z,0.54
2023-05-01T07:08:01.367Z,0.53
2023-05-01T07:08:57.081Z,0.42
2023-05-01T07:09:56.108Z,0.46
2023-05-01T07:10:55.974Z,0.51
2023-05-01T07:11:55.981Z,0.46
2023-05-01T07:12:55.950Z,0.35
2023-05-01T07:13:55.982Z,0.43
2023-05-01T07:14:56.023Z,0.50
2023-05-01T07:15:56.070Z,0.50
2023-05-01T07:16:56.043Z,0.50
2023-05-01T07:17:56.071Z,0.51
2023-05-01T07:18:56.115Z,0.69
2023-05-01T07:19:56.260Z,0.68
2023-05-01T07:20:56.143Z,0.61
2023-05-01T07:21:56.243Z,0.61
2023-05-01T07:22:56.263Z,0.61
2023-05-01T07:23:56.382Z,0.63
2023-05-01T07:24:56.361Z,0.51
2023-05-01T07:25:56.376Z,0.51
2023-05-01T07:27:07.257Z,0.50
2023-05-01T07:27:56.364Z,0.46
2023-05-01T07:28:56.334Z,0.42
2023-05-01T07:29:56.601Z,0.50
2023-05-01T07:30:56.339Z,0.51
2023-05-01T07:31:56.460Z,0.47
2023-05-01T07:32:56.373Z,0.40
2023-05-01T07:33:56.407Z,0.41
2023-05-01T07:34:56.315Z,0.51
2023-05-01T07:35:56.330Z,0.60
2023-05-01T07:36:56.440Z,0.75
2023-05-01T07:37:56.366Z,1.63
2023-05-01T07:38:56.397Z,3.26
2023-05-01T07:39:56.815Z,6.16
2023-05-01T07:40:56.568Z,6.05
2023-05-01T07:41:56.668Z,7.46
2023-05-01T07:42:56.674Z,8.65
2023-05-01T07:43:56.614Z,9.26
2023-05-01T07:44:56.693Z,8.14
2023-05-01T07:45:56.757Z,7.23
2023-05-01T07:46:56.715Z,5.93
2023-05-01T07:47:56.754Z,5.62
2023-05-01T07:48:56.821Z,5.98
2023-05-01T07:49:56.867Z,6.30
2023-05-01T07:50:56.842Z,7.75
2023-05-01T07:51:56.938Z,8.11
2023-05-01T07:52:56.848Z,8.34
2023-05-01T07:53:56.904Z,10.80
2023-05-01T07:54:56.985Z,8.12
2023-05-01T07:55:57.062Z,7.53
2023-05-01T07:56:57.102Z,10.08
2023-05-01T07:57:57.111Z,11.65
2023-05-01T07:58:57.088Z,11.90
2023-05-01T07:59:57.350Z,7.71
2023-05-01T08:00:57.202Z,6.91
2023-05-01T08:01:57.256Z,8.44
2023-05-01T08:02:57.222Z,8.91
2023-05-01T08:03:57.339Z,9.40
2023-05-01T08:04:57.245Z,9.15
2023-05-01T08:05:57.325Z,7.00
2023-05-01T08:06:57.443Z,6.88
2023-05-01T08:07:57.308Z,8.20
2023-05-01T08:08:57.370Z,5.48
2023-05-01T08:09:59.995Z,5.31
2023-05-01T08:10:57.375Z,7.41
2023-05-01T08:11:57.360Z,5.84
2023-05-01T08:12:57.637Z,5.49
2023-05-01T08:13:57.354Z,5.32
2023-05-01T08:14:57.306Z,5.05
2023-05-01T08:15:57.313Z,4.18
2023-05-01T08:16:57.379Z,2.98
2023-05-01T08:17:57.284Z,2.93
2023-05-01T08:18:57.235Z,3.24
2023-05-01T08:19:57.363Z,2.21
2023-05-01T08:20:57.264Z,1.88
2023-05-01T08:21:57.290Z,2.00
2023-05-01T08:22:57.267Z,1.74
2023-05-01T08:23:57.263Z,1.72
2023-05-01T08:24:57.223Z,1.85
2023-05-01T08:25:57.289Z,1.94
2023-05-01T08:26:57.229Z,2.08
2023-05-01T08:27:57.263Z,2.19
2023-05-01T08:28:57.207Z,1.53
2023-05-01T08:29:57.432Z,1.34
2023-05-01T08:30:57.236Z,1.47
2023-05-01T08:31:57.226Z,1.34
2023-05-01T08:32:57.287Z,1.26
2023-05-01T08:33:57.233Z,1.03
2023-05-01T08:34:57.238Z,0.87
2023-05-01T08:35:57.155Z,1.15
2023-05-01T08:36:57.257Z,0.92
2023-05-01T08:37:57.154Z,1.12
2023-05-01T08:38:57.160Z,1.14
2023-05-01T08:39:57.340Z,1.45
2023-05-01T08:40:57.107Z,1.63
2023-05-01T08:41:57.154Z,1.70
2023-05-01T08:42:57.214Z,1.38
2023-05-01T08:43:57.128Z,1.09
2023-05-01T08:44:57.118Z,0.88
2023-05-01T08:45:57.122Z,0.67
2023-05-01T08:46:57.166Z,0.78
2023-05-01T08:47:57.106Z,0.82
2023-05-01T08:48:57.051Z,0.49
2023-05-01T08:49:57.327Z,0.51
2023-05-01T08:50:57.064Z,0.57
2023-05-01T08:51:57.107Z,0.68
2023-05-01T08:52:57.052Z,0.96
2023-05-01T08:53:57.082Z,0.87
2023-05-01T08:54:57.045Z,0.93
2023-05-01T08:55:57.052Z,0.57
2023-05-01T08:56:57.001Z,0.38
2023-05-01T08:57:57.001Z,0.45
2023-05-01T08:58:57.012Z,0.49
2023-05-01T08:59:57.204Z,0.52
2023-05-01T09:00:57.007Z,0.50
2023-05-01T09:01:57.019Z,0.56
2023-05-01T09:02:56.998Z,0.53
2023-05-01T09:03:57.017Z,0.49
2023-05-01T09:04:57.015Z,0.48
2023-05-01T09:05:57.081Z,0.68
2023-05-01T09:06:57.101Z,0.70
2023-05-01T09:07:57.176Z,0.79
2023-05-01T09:08:57.210Z,1.15
2023-05-01T09:09:57.420Z,1.40
2023-05-01T09:10:57.296Z,1.50
2023-05-01T09:11:57.361Z,1.14
2023-05-01T09:12:57.372Z,1.24
2023-05-01T09:13:57.414Z,0.96
2023-05-01T09:14:57.406Z,1.17
2023-05-01T09:15:57.556Z,0.97
2023-05-01T09:16:57.564Z,0.81
2023-05-01T09:17:57.572Z,0.96
2023-05-01T09:18:57.512Z,1.10
2023-05-01T09:19:57.725Z,1.50
2023-05-01T09:20:57.597Z,1.31
2023-05-01T09:21:57.647Z,1.28
2023-05-01T09:22:57.618Z,0.94
2023-05-01T09:23:57.597Z,0.74
2023-05-01T09:24:57.640Z,0.80
2023-05-01T09:25:57.696Z,1.02
2023-05-01T09:26:57.774Z,0.93
2023-05-01T09:27:57.773Z,0.90
2023-05-01T09:28:57.877Z,1.10
2023-05-01T09:29:58.039Z,1.48
2023-05-01T09:30:57.812Z,1.19
2023-05-01T09:31:57.845Z,0.83
2023-05-01T09:32:57.895Z,0.94
2023-05-01T09:33:57.914Z,0.74
2023-05-01T09:34:58.002Z,0.82
2023-05-01T09:35:58.049Z,0.75
2023-05-01T09:36:58.028Z,0.44
2023-05-01T09:37:58.014Z,0.55
2023-05-01T09:38:58.034Z,0.57
2023-05-01T09:39:58.268Z,0.50
2023-05-01T09:40:58.094Z,0.54
2023-05-01T09:41:58.128Z,0.81
2023-05-01T09:42:58.071Z,1.00
2023-05-01T09:43:58.106Z,1.14
2023-05-01T09:44:58.097Z,0.80
2023-05-01T09:45:58.273Z,0.50
2023-05-01T09:46:58.281Z,0.57
2023-05-01T09:47:58.332Z,0.62
2023-05-01T09:48:58.335Z,0.72
2023-05-01T09:49:58.561Z,0.57
2023-05-01T09:50:58.363Z,0.56
2023-05-01T09:51:58.401Z,0.87
2023-05-01T09:52:58.379Z,0.49
2023-05-01T09:53:58.411Z,0.49
2023-05-01T09:54:58.451Z,0.49
2023-05-01T09:55:58.452Z,0.52
2023-05-01T09:56:58.534Z,0.53
2023-05-01T09:57:58.468Z,0.49
2023-05-01T09:58:58.517Z,0.53
2023-05-01T09:59:58.663Z,0.47
2023-05-01T10:00:58.703Z,0.67
2023-05-01T10:01:58.747Z,0.97
2023-05-01T10:02:58.750Z,0.78
2023-05-01T10:03:58.861Z,0.60
2023-05-01T10:04:58.781Z,0.51
2023-05-01T10:05:58.791Z,0.61
2023-05-01T10:06:58.796Z,0.60
2023-05-01T10:08:58.908Z,0.87
2023-05-01T10:10:01.495Z,0.90
2023-05-01T10:10:58.957Z,0.98
2023-05-01T10:11:59.007Z,0.96
2023-05-01T10:12:59.019Z,1.20
2023-05-01T10:13:58.994Z,1.09
2023-05-01T10:15:00.532Z,1.09
2023-05-01T10:15:58.945Z,0.65
2023-05-01T10:16:59.096Z,0.61
2023-05-01T10:17:59.024Z,0.94
2023-05-01T10:18:59.023Z,1.45
2023-05-01T10:19:59.087Z,1.94
2023-05-01T10:20:58.942Z,2.62
2023-05-01T10:21:58.969Z,2.27
2023-05-01T10:22:58.955Z,2.81
2023-05-01T10:23:58.885Z,2.82
2023-05-01T10:24:58.902Z,1.53
2023-05-01T10:25:59.824Z,1.36
2023-05-01T10:26:58.879Z,1.79
2023-05-01T10:27:58.865Z,2.23
2023-05-01T10:28:58.906Z,1.72
2023-05-01T10:29:59.187Z,1.89
2023-05-01T10:30:58.982Z,2.11
2023-05-01T10:31:59.103Z,2.12
2023-05-01T10:32:59.029Z,1.68
2023-05-01T10:33:58.881Z,1.71
2023-05-01T10:34:59.099Z,1.77
2023-05-01T10:35:58.972Z,1.87
2023-05-01T10:36:58.980Z,1.05
2023-05-01T10:37:58.969Z,1.13
2023-05-01T10:38:58.986Z,1.14
2023-05-01T10:39:59.112Z,0.91
2023-05-01T10:40:59.138Z,0.94
2023-05-01T10:41:59.181Z,1.05
2023-05-01T10:42:59.074Z,0.91
2023-05-01T10:43:59.125Z,1.12
2023-05-01T10:44:59.098Z,0.80
2023-05-01T10:45:59.161Z,0.82
2023-05-01T10:46:59.182Z,0.67
2023-05-01T10:47:59.246Z,0.77
2023-05-01T10:48:59.144Z,0.70
2023-05-01T10:49:59.149Z,0.81
2023-05-01T10:50:59.236Z,0.74
2023-05-01T10:51:59.287Z,0.68
2023-05-01T10:52:59.238Z,0.64
2023-05-01T10:53:59.272Z,0.54
2023-05-01T10:54:59.310Z,0.47
2023-05-01T10:55:59.299Z,0.55
2023-05-01T10:56:59.392Z,0.59
2023-05-01T10:57:59.431Z,0.58
2023-05-01T10:58:59.474Z,0.53
2023-05-01T10:59:59.447Z,0.53
2023-05-01T11:00:59.546Z,0.47
2023-05-01T11:01:59.604Z,0.34
2023-05-01T11:02:59.686Z,0.48
2023-05-01T11:03:59.676Z,0.60
2023-05-01T11:04:59.938Z,0.51
2023-05-01T11:05:59.942Z,0.61
2023-05-01T11:06:59.934Z,0.58
2023-05-01T11:07:59.883Z,0.58
2023-05-01T11:08:59.801Z,0.80
2023-05-01T11:09:59.910Z,1.05
2023-05-01T11:10:59.946Z,0.79
2023-05-01T11:12:00.057Z,1.31
2023-05-01T11:13:00.086Z,0.81
2023-05-01T11:14:00.054Z,0.42
2023-05-01T11:15:00.230Z,0.49
2023-05-01T11:16:00.203Z,0.52
2023-05-01T11:17:00.275Z,0.68
2023-05-01T11:18:00.250Z,1.32
2023-05-01T11:19:00.316Z,1.92
2023-05-01T11:20:00.347Z,1.47
2023-05-01T11:21:00.411Z,0.93
2023-05-01T11:22:00.415Z,0.58
2023-05-01T11:23:00.423Z,0.52
2023-05-01T11:24:00.422Z,0.53
2023-05-01T11:25:00.569Z,0.44
2023-05-01T11:26:00.434Z,0.50
2023-05-01T11:27:01.091Z,0.50
2023-05-01T11:28:00.464Z,0.76
2023-05-01T11:29:00.505Z,0.74
2023-05-01T11:30:00.599Z,0.70
2023-05-01T11:31:00.568Z,0.63
2023-05-01T11:32:00.824Z,0.70
2023-05-01T11:33:00.776Z,0.87
2023-05-01T11:34:00.685Z,0.80
2023-05-01T11:35:00.754Z,0.84
2023-05-01T11:36:00.785Z,0.84
2023-05-01T11:37:00.826Z,0.94
2023-05-01T11:38:00.832Z,0.59
2023-05-01T11:39:00.865Z,0.71
2023-05-01T11:40:00.940Z,0.58
2023-05-01T11:41:00.949Z,0.70
2023-05-01T11:42:00.977Z,0.62
2023-05-01T11:43:00.963Z,0.50
2023-05-01T11:44:01.007Z,0.68
2023-05-01T11:45:01.036Z,0.67
2023-05-01T11:46:01.086Z,0.80
2023-05-01T11:47:01.196Z,1.12
2023-05-01T11:48:03.665Z,0.83
2023-05-01T11:49:01.093Z,0.85
2023-05-01T11:50:01.129Z,0.70
2023-05-01T11:51:01.113Z,0.63
2023-05-01T11:52:01.141Z,0.50
2023-05-01T11:53:01.060Z,0.50
2023-05-01T11:54:01.156Z,0.63
2023-05-01T11:55:01.421Z,0.66
2023-05-01T11:56:01.158Z,0.46
2023-05-01T11:57:01.198Z,0.60
2023-05-01T11:58:01.073Z,0.51
2023-05-01T11:59:01.053Z,0.58
2023-05-01T12:00:01.059Z,0.77
2023-05-01T12:01:01.067Z,0.55
2023-05-01T12:02:01.122Z,0.51
2023-05-01T12:03:01.297Z,0.59
2023-05-01T12:04:01.069Z,0.65
2023-05-01T12:05:01.355Z,0.77
2023-05-01T12:06:01.055Z,1.11
2023-05-01T12:07:01.006Z,0.78
2023-05-01T12:08:01.015Z,1.10
2023-05-01T12:09:00.939Z,0.84
2023-05-01T12:10:01.023Z,0.78
2023-05-01T12:11:00.970Z,0.66
2023-05-01T12:12:00.975Z,0.93
2023-05-01T12:13:01.017Z,0.86
2023-05-01T12:14:00.945Z,0.79
2023-05-01T12:15:00.981Z,1.29
2023-05-01T12:16:00.933Z,1.57
2023-05-01T12:17:01.012Z,2.10
2023-05-01T12:18:00.996Z,1.79
2023-05-01T12:19:01.070Z,1.24
2023-05-01T12:20:00.894Z,1.21
2023-05-01T12:21:00.904Z,1.05
2023-05-01T12:22:00.923Z,1.28
2023-05-01T12:23:00.922Z,1.34
2023-05-01T12:24:01.203Z,1.29
2023-05-01T12:25:00.963Z,1.16
2023-05-01T12:26:00.915Z,1.10
2023-05-01T12:27:00.860Z,0.98
2023-05-01T12:28:00.863Z,1.06
2023-05-01T12:29:00.894Z,0.63
2023-05-01T12:30:00.870Z,0.50
2023-05-01T12:31:03.333Z,0.65
2023-05-01T12:32:00.911Z,0.58
2023-05-01T12:33:00.999Z,0.55
2023-05-01T12:34:00.810Z,0.72
2023-05-01T12:35:01.041Z,0.48
2023-05-01T12:36:00.795Z,0.46
2023-05-01T12:37:00.794Z,0.51
2023-05-01T12:38:00.809Z,0.45
2023-05-01T12:39:01.114Z,0.68
2023-05-01T12:40:00.828Z,0.49
2023-05-01T12:41:00.763Z,0.50
2023-05-01T12:42:00.733Z,0.59
2023-05-01T12:43:00.840Z,0.57
2023-05-01T12:44:00.756Z,0.52
2023-05-01T12:45:01.059Z,0.57
2023-05-01T12:46:00.801Z,0.81
2023-05-01T12:47:01.141Z,1.17
2023-05-01T12:48:00.764Z,0.80
2023-05-01T12:49:00.744Z,0.63
2023-05-01T12:50:00.857Z,0.70
2023-05-01T12:51:00.687Z,0.58
2023-05-01T12:52:00.733Z,0.60